Swords, Ireland
Current Conditions -  °F | °C
As of 5:30 PM on Friday 31 Oct 2014 (Local Time) from EIDW Reporting Station
Light Rain Light Rain  
Wind Chill: 59°   Ceiling: 3500
Heat Index: 59°   Visibility: 6mi
Dew Point: 57°   Wind: 13mph
Humidity: 94%   Direction: 230°SW
Pressure: 29.65"   Gusts: NA
Location:  53.45°N, 6.22°W
Report Text: EIDW 311730Z 23011KT 9000 -RA SCT009 BKN035 BKN046 15/14 Q1004 NOSIG
Loading
Personal Weather Stations






























Interactive Weather Map New forecast layout! Learn more

10-Day Weather Forecast

Advertisements
Track Severe Weather on mobile